TimeEDT,TemperatureF,Dew PointF,Humidity,Sea Level PressureIn,VisibilityMPH,Wind Direction,Wind SpeedMPH,Gust SpeedMPH,PrecipitationIn,Events,Conditions,WindDirDegrees,DateUTC
12:15 AM,35.6,30.2,81,29.73,10.0,Calm,Calm,-,N/A,,Clear,0,2013-03-25 04:15:00
12:35 AM,35.6,30.2,81,29.72,10.0,Calm,Calm,-,N/A,,Clear,0,2013-03-25 04:35:00
12:55 AM,33.8,30.2,87,29.72,10.0,Calm,Calm,-,N/A,,Clear,0,2013-03-25 04:55:00
1:15 AM,35.6,30.2,81,29.72,10.0,Calm,Calm,-,N/A,,Clear,0,2013-03-25 05:15:00
1:35 AM,35.6,30.2,81,29.72,10.0,Calm,Calm,-,N/A,,Clear,0,2013-03-25 05:35:00
1:55 AM,33.8,30.2,87,29.71,10.0,Calm,Calm,-,N/A,,Clear,0,2013-03-25 05:55:00
2:15 AM,33.8,30.2,87,29.70,10.0,North,3.5,-,N/A,,Clear,350,2013-03-25 06:15:00
2:35 AM,33.8,30.2,87,29.70,10.0,North,4.6,-,N/A,,Clear,10,2013-03-25 06:35:00
3:15 AM,33.8,28.4,81,29.68,10.0,NNE,3.5,-,N/A,,Clear,30,2013-03-25 07:15:00
3:35 AM,33.8,28.4,81,29.68,10.0,NNE,3.5,-,N/A,,Clear,20,2013-03-25 07:35:00
3:55 AM,33.8,28.4,81,29.67,10.0,NNE,3.5,-,N/A,,Clear,20,2013-03-25 07:55:00
4:15 AM,33.8,28.4,81,29.66,10.0,North,3.5,-,N/A,,Clear,10,2013-03-25 08:15:00
4:35 AM,33.8,28.4,81,29.66,10.0,NNE,4.6,-,N/A,,Clear,30,2013-03-25 08:35:00
4:55 AM,33.8,28.4,81,29.66,10.0,NE,4.6,-,N/A,,Clear,40,2013-03-25 08:55:00
5:15 AM,33.8,28.4,81,29.66,10.0,NE,4.6,-,N/A,,Clear,40,2013-03-25 09:15:00
5:35 AM,33.8,26.6,75,29.65,10.0,NE,5.8,-,N/A,,Clear,50,2013-03-25 09:35:00
5:55 AM,33.8,26.6,75,29.65,10.0,NE,6.9,-,N/A,,Clear,50,2013-03-25 09:55:00
6:15 AM,33.8,26.6,75,29.65,10.0,NE,6.9,-,N/A,,Clear,40,2013-03-25 10:15:00
6:35 AM,33.8,26.6,75,29.66,10.0,NE,5.8,-,N/A,,Clear,50,2013-03-25 10:35:00
7:15 AM,35.6,26.6,70,29.65,10.0,ENE,8.1,-,N/A,,Clear,70,2013-03-25 11:15:00
7:35 AM,35.6,26.6,70,29.64,10.0,ENE,10.4,-,N/A,,Partly Cloudy,70,2013-03-25 11:35:00
7:55 AM,37.4,26.6,65,29.63,10.0,ENE,11.5,16.1,N/A,,Partly Cloudy,60,2013-03-25 11:55:00
8:15 AM,37.4,26.6,65,29.62,10.0,ENE,12.7,16.1,N/A,,Partly Cloudy,60,2013-03-25 12:15:00
8:35 AM,37.4,28.4,70,29.62,10.0,ENE,10.4,18.4,N/A,,Clear,60,2013-03-25 12:35:00
8:55 AM,37.4,28.4,70,29.62,10.0,ENE,10.4,18.4,N/A,,Partly Cloudy,70,2013-03-25 12:55:00
9:15 AM,39.2,28.4,65,29.62,10.0,East,12.7,-,N/A,,Partly Cloudy,80,2013-03-25 13:15:00
9:35 AM,39.2,28.4,65,29.62,10.0,East,11.5,17.3,N/A,,Partly Cloudy,80,2013-03-25 13:35:00
9:55 AM,39.2,28.4,65,29.62,10.0,East,10.4,-,N/A,,Scattered Clouds,100,2013-03-25 13:55:00
10:15 AM,41.0,28.4,61,29.61,10.0,East,8.1,-,N/A,,Partly Cloudy,90,2013-03-25 14:15:00
10:35 AM,42.8,26.6,53,29.59,10.0,East,12.7,21.9,N/A,,Partly Cloudy,80,2013-03-25 14:35:00
10:55 AM,42.8,26.6,53,29.58,10.0,East,8.1,19.6,N/A,,Mostly Cloudy,100,2013-03-25 14:55:00
11:15 AM,42.8,26.6,53,29.56,10.0,East,17.3,24.2,N/A,,Overcast,80,2013-03-25 15:15:00
11:35 AM,42.8,26.6,53,29.56,10.0,East,11.5,18.4,N/A,,Overcast,80,2013-03-25 15:35:00
11:55 AM,44.6,24.8,46,29.55,10.0,East,12.7,20.7,N/A,,Mostly Cloudy,100,2013-03-25 15:55:00
12:15 PM,42.8,24.8,49,29.54,10.0,East,9.2,17.3,N/A,,Overcast,90,2013-03-25 16:15:00
12:35 PM,42.8,26.6,53,29.54,10.0,East,13.8,20.7,N/A,,Overcast,80,2013-03-25 16:35:00
12:55 PM,42.8,26.6,53,29.53,10.0,ENE,10.4,20.7,N/A,,Overcast,70,2013-03-25 16:55:00
1:15 PM,42.8,28.4,57,29.51,10.0,ENE,12.7,-,N/A,,Overcast,70,2013-03-25 17:15:00
1:35 PM,42.8,28.4,57,29.49,10.0,ENE,9.2,17.3,N/A,,Overcast,60,2013-03-25 17:35:00
1:55 PM,42.8,26.6,53,29.47,10.0,ENE,10.4,20.7,N/A,,Overcast,60,2013-03-25 17:55:00
2:15 PM,42.8,26.6,53,29.45,10.0,NE,13.8,21.9,N/A,,Overcast,50,2013-03-25 18:15:00
2:35 PM,42.8,26.6,53,29.44,10.0,NE,10.4,24.2,N/A,,Overcast,50,2013-03-25 18:35:00
2:55 PM,42.8,24.8,49,29.44,10.0,ENE,15.0,20.7,N/A,,Overcast,60,2013-03-25 18:55:00
3:15 PM,44.6,23.0,43,29.44,10.0,East,13.8,19.6,N/A,,Overcast,80,2013-03-25 19:15:00
3:35 PM,44.6,23.0,43,29.43,10.0,East,11.5,18.4,N/A,,Overcast,80,2013-03-25 19:35:00
3:55 PM,44.6,23.0,43,29.44,10.0,East,12.7,21.9,N/A,,Mostly Cloudy,90,2013-03-25 19:55:00
4:15 PM,42.8,23.0,46,29.44,10.0,ENE,13.8,23.0,N/A,,Scattered Clouds,70,2013-03-25 20:15:00
4:35 PM,42.8,23.0,46,29.44,10.0,ENE,13.8,24.2,N/A,,Partly Cloudy,70,2013-03-25 20:35:00
4:55 PM,42.8,23.0,46,29.45,10.0,NE,9.2,17.3,N/A,,Mostly Cloudy,40,2013-03-25 20:55:00
5:15 PM,42.8,26.6,53,29.45,10.0,NE,16.1,23.0,N/A,,Mostly Cloudy,50,2013-03-25 21:15:00
5:35 PM,41.0,26.6,57,29.46,10.0,NE,13.8,23.0,N/A,,Scattered Clouds,40,2013-03-25 21:35:00
5:55 PM,41.0,26.6,57,29.47,10.0,NE,9.2,19.6,N/A,,Scattered Clouds,50,2013-03-25 21:55:00
6:15 PM,41.0,28.4,61,29.47,10.0,ENE,11.5,-,N/A,,Scattered Clouds,60,2013-03-25 22:15:00
6:35 PM,39.2,28.4,65,29.48,10.0,ENE,12.7,19.6,N/A,,Clear,60,2013-03-25 22:35:00
6:55 PM,39.2,28.4,65,29.49,10.0,NE,13.8,23.0,N/A,,Scattered Clouds,50,2013-03-25 22:55:00
7:15 PM,39.2,26.6,61,29.49,10.0,NE,8.1,23.0,N/A,,Overcast,50,2013-03-25 23:15:00
7:35 PM,37.4,30.2,75,29.51,5.0,NE,13.8,23.0,0.01,,Mostly Cloudy,40,2013-03-25 23:35:00
7:55 PM,35.6,32.0,87,29.51,4.0,NE,5.8,16.1,0.06,Rain,Light Rain,40,2013-03-25 23:55:00
8:15 PM,35.6,32.0,87,29.52,5.0,NE,9.2,-,N/A,,Mostly Cloudy,40,2013-03-26 00:15:00
8:35 PM,35.6,32.0,87,29.52,5.0,ENE,5.8,-,0.02,,Overcast,60,2013-03-26 00:35:00
8:55 PM,35.6,32.0,87,29.52,3.0,NNE,3.5,-,0.10,,Overcast,30,2013-03-26 00:55:00
9:15 PM,35.6,32.0,87,29.52,10.0,NNE,4.6,-,N/A,,Mostly Cloudy,20,2013-03-26 01:15:00
9:35 PM,37.4,30.2,75,29.52,10.0,NE,10.4,17.3,N/A,,Scattered Clouds,40,2013-03-26 01:35:00
9:55 PM,37.4,28.4,70,29.52,10.0,NNE,9.2,19.6,N/A,,Partly Cloudy,30,2013-03-26 01:55:00
10:15 PM,37.4,28.4,70,29.52,10.0,NNE,12.7,18.4,N/A,,Mostly Cloudy,20,2013-03-26 02:15:00
10:35 PM,37.4,26.6,65,29.52,10.0,NNE,8.1,-,N/A,,Mostly Cloudy,30,2013-03-26 02:35:00
10:55 PM,37.4,28.4,70,29.53,10.0,NNE,9.2,17.3,N/A,,Scattered Clouds,20,2013-03-26 02:55:00
11:15 PM,37.4,28.4,70,29.53,10.0,NNE,8.1,16.1,N/A,,Clear,20,2013-03-26 03:15:00
11:35 PM,37.4,26.6,65,29.53,10.0,North,8.1,-,N/A,,Mostly Cloudy,10,2013-03-26 03:35:00
11:55 PM,37.4,28.4,70,29.54,10.0,North,9.2,-,N/A,,Overcast,360,2013-03-26 03:55:00